createdAt,value
2023-01-11T00:01:36.966Z,5.72
2023-01-11T00:06:44.371Z,6.40
2023-01-11T00:09:17.550Z,7.75
2023-01-11T00:11:52.482Z,5.75
2023-01-11T00:14:27.265Z,6.85
2023-01-11T00:17:00.672Z,6.25
2023-01-11T00:19:33.608Z,6.03
2023-01-11T00:22:07.377Z,5.85
2023-01-11T00:24:42.792Z,6.30
2023-01-11T00:27:19.002Z,6.40
2023-01-11T00:29:53.241Z,6.90
2023-01-11T00:32:27.306Z,7.03
2023-01-11T00:35:00.493Z,7.50
2023-01-11T00:37:33.647Z,7.18
2023-01-11T00:45:49.877Z,7.40
2023-01-11T00:48:22.875Z,7.25
2023-01-11T00:53:29.661Z,7.20
2023-01-11T00:56:03.186Z,7.40
2023-01-11T00:58:36.222Z,6.60
2023-01-11T01:01:10.613Z,6.07
2023-01-11T01:03:43.628Z,5.43
2023-01-11T01:08:49.465Z,5.90
2023-01-11T01:11:22.870Z,6.00
2023-01-11T01:14:13.623Z,6.15
2023-01-11T01:16:49.704Z,5.22
2023-01-11T01:19:23.361Z,5.75
2023-01-11T01:21:56.820Z,4.93
2023-01-11T01:24:31.160Z,5.05
2023-01-11T01:27:04.541Z,4.93
2023-01-11T01:29:37.704Z,4.45
2023-01-11T01:34:44.867Z,4.28
2023-01-11T01:37:18.285Z,4.82
2023-01-11T01:39:51.377Z,3.25
2023-01-11T01:42:24.489Z,3.28
2023-01-11T01:45:04.317Z,2.80
2023-01-11T01:47:44.538Z,2.72
2023-01-11T01:50:21.801Z,3.13
2023-01-11T01:53:00.735Z,2.20
2023-01-11T01:55:37.080Z,2.10
2023-01-11T01:58:17.240Z,2.67
2023-01-11T02:00:50.502Z,2.15
2023-01-11T02:03:30.927Z,1.77
2023-01-11T02:06:09.679Z,1.92
2023-01-11T02:08:49.090Z,1.77
2023-01-11T02:11:32.189Z,2.50
2023-01-11T02:14:10.983Z,2.38
2023-01-11T02:16:44.135Z,2.03
2023-01-11T02:19:30.974Z,2.75
2023-01-11T02:22:26.220Z,2.80
2023-01-11T02:25:30.330Z,2.30
2023-01-11T02:28:10.768Z,2.97
2023-01-11T02:30:54.622Z,2.50
2023-01-11T02:33:36.067Z,3.03
2023-01-11T02:36:17.745Z,3.28
2023-01-11T02:38:58.848Z,3.53
2023-01-11T02:41:55.753Z,2.80
2023-01-11T02:44:55.500Z,2.78
2023-01-11T02:47:35.848Z,4.05
2023-01-11T02:50:20.541Z,3.45
2023-01-11T02:52:59.942Z,3.30
2023-01-11T02:55:39.258Z,4.35
2023-01-11T02:58:17.307Z,5.03
2023-01-11T03:00:55.799Z,3.75
2023-01-11T03:03:29.621Z,4.03
2023-01-11T03:06:06.423Z,4.50
2023-01-11T03:08:57.940Z,3.20
2023-01-11T03:11:57.858Z,3.95
2023-01-11T03:14:43.924Z,4.22
2023-01-11T03:17:29.868Z,4.22
2023-01-11T03:20:11.050Z,4.32
2023-01-11T03:22:55.759Z,3.90
2023-01-11T03:25:39.091Z,4.93
2023-01-11T03:28:18.102Z,4.75
2023-01-11T03:30:58.083Z,4.03
2023-01-11T03:33:37.997Z,5.43
2023-01-11T03:36:18.497Z,4.78
2023-01-11T03:38:56.583Z,6.03
2023-01-11T03:41:33.664Z,4.43
2023-01-11T03:44:10.457Z,5.03
2023-01-11T03:46:49.533Z,4.53
2023-01-11T03:49:29.596Z,6.22
2023-01-11T03:52:05.616Z,5.63
2023-01-11T03:54:38.945Z,6.93
2023-01-11T03:57:15.975Z,6.65
2023-01-11T03:59:50.549Z,5.53
2023-01-11T04:02:27.710Z,5.30
2023-01-11T04:05:02.072Z,4.28
2023-01-11T04:07:36.611Z,5.95
2023-01-11T04:10:13.067Z,5.47
2023-01-11T04:12:48.693Z,5.47
2023-01-11T04:15:22.147Z,6.45
2023-01-11T04:18:04.676Z,5.88
2023-01-11T04:20:41.445Z,5.22
2023-01-11T04:23:18.754Z,4.10
2023-01-11T04:25:53.471Z,4.85
2023-01-11T04:28:30.720Z,5.15
2023-01-11T04:31:04.674Z,3.92
2023-01-11T04:33:38.376Z,4.75
2023-01-11T04:36:13.307Z,4.50
2023-01-11T04:38:49.264Z,5.22
2023-01-11T04:41:40.074Z,4.60
2023-01-11T04:44:19.657Z,5.03
2023-01-11T04:46:57.808Z,4.45
2023-01-11T04:49:33.057Z,5.80
2023-01-11T04:52:11.827Z,3.85
2023-01-11T04:54:49.143Z,4.88
2023-01-11T04:57:26.582Z,3.72
2023-01-11T05:00:00.062Z,4.78
2023-01-11T05:02:37.021Z,4.45
2023-01-11T05:05:16.288Z,4.30
2023-01-11T05:07:52.094Z,3.92
2023-01-11T05:10:36.595Z,4.05
2023-01-11T05:13:14.877Z,4.35
2023-01-11T05:15:48.966Z,3.63
2023-01-11T05:18:24.259Z,4.25
2023-01-11T05:21:03.008Z,3.70
2023-01-11T05:23:45.584Z,3.15
2023-01-11T05:26:28.220Z,3.35
2023-01-11T05:29:03.582Z,3.13
2023-01-11T05:31:40.382Z,4.03
2023-01-11T05:34:14.904Z,3.47
2023-01-11T05:36:51.976Z,2.97
2023-01-11T05:39:36.931Z,4.63
2023-01-11T05:42:10.317Z,3.65
2023-01-11T05:45:01.293Z,3.65
2023-01-11T05:47:34.550Z,3.63
2023-01-11T05:50:08.378Z,4.80
2023-01-11T05:52:41.475Z,4.45
2023-01-11T05:55:17.479Z,3.85
2023-01-11T05:57:51.315Z,5.22
2023-01-11T06:00:27.463Z,3.53
2023-01-11T06:03:09.382Z,4.20
2023-01-11T06:05:46.786Z,3.42
2023-01-11T06:08:28.917Z,3.78
2023-01-11T06:11:04.465Z,3.85
2023-01-11T06:13:37.922Z,4.03
2023-01-11T06:16:13.279Z,3.83
2023-01-11T06:18:49.041Z,3.72
2023-01-11T06:21:24.299Z,3.75
2023-01-11T06:24:00.756Z,5.00
2023-01-11T06:26:35.846Z,3.80
2023-01-11T06:29:11.445Z,3.33
2023-01-11T06:31:47.354Z,3.67
2023-01-11T06:34:20.905Z,3.88
2023-01-11T06:36:54.230Z,3.83
2023-01-11T06:39:30.120Z,4.65
2023-01-11T06:42:07.308Z,4.32
2023-01-11T06:44:40.493Z,4.22
2023-01-11T06:47:13.922Z,5.03
2023-01-11T06:49:47.286Z,4.72
2023-01-11T06:52:22.737Z,5.22
2023-01-11T06:54:58.023Z,4.47
2023-01-11T06:57:33.698Z,4.50
2023-01-11T07:00:18.715Z,3.80
2023-01-11T07:02:52.355Z,5.20
2023-01-11T07:05:25.559Z,4.25
2023-01-11T07:08:02.340Z,4.22
2023-01-11T07:10:35.596Z,4.40
2023-01-11T07:13:11.437Z,4.43
2023-01-11T07:15:45.399Z,3.75
2023-01-11T07:18:19.852Z,4.38
2023-01-11T07:20:52.850Z,4.82
2023-01-11T07:23:26.052Z,3.67
2023-01-11T07:26:01.806Z,3.80
2023-01-11T07:28:36.779Z,4.80
2023-01-11T07:31:12.272Z,4.68
2023-01-11T07:33:45.902Z,3.83
2023-01-11T07:36:19.123Z,3.67
2023-01-11T07:38:52.635Z,4.72
2023-01-11T07:41:43.368Z,4.97
2023-01-11T07:44:19.650Z,4.75
2023-01-11T07:46:53.146Z,5.20
2023-01-11T07:49:26.730Z,5.32
2023-01-11T07:52:04.687Z,4.88
2023-01-11T07:54:37.930Z,5.07
2023-01-11T07:57:10.876Z,4.18
2023-01-11T08:02:18.757Z,3.65
2023-01-11T08:04:52.273Z,4.57
2023-01-11T08:07:25.458Z,4.10
2023-01-11T08:09:58.800Z,4.47
2023-01-11T08:12:51.501Z,4.30
2023-01-11T08:15:31.663Z,3.80
2023-01-11T08:18:05.883Z,4.45
2023-01-11T08:20:39.103Z,5.60
2023-01-11T08:23:12.068Z,5.22
2023-01-11T08:25:45.493Z,3.38
2023-01-11T08:28:18.550Z,5.30
2023-01-11T08:30:53.055Z,4.00
2023-01-11T08:33:26.586Z,3.60
2023-01-11T08:35:59.437Z,3.67
2023-01-11T08:41:11.844Z,4.68
2023-01-11T08:43:45.260Z,4.85
2023-01-11T08:46:25.010Z,2.67
2023-01-11T08:49:02.931Z,3.75
2023-01-11T08:51:41.637Z,3.63
2023-01-11T08:54:17.666Z,4.63
2023-01-11T08:56:52.440Z,4.35
2023-01-11T08:59:25.453Z,5.20
2023-01-11T09:01:59.990Z,3.83
2023-01-11T09:04:34.175Z,4.03
2023-01-11T09:07:07.172Z,4.82
2023-01-11T09:12:15.121Z,4.47
2023-01-11T09:14:48.197Z,3.70
2023-01-11T09:19:58.548Z,4.22
2023-01-11T09:25:06.089Z,4.07
2023-01-11T09:27:38.924Z,3.53
2023-01-11T09:35:20.590Z,3.80
2023-01-11T09:37:56.363Z,3.90
2023-01-11T09:40:42.426Z,5.72
2023-01-11T09:43:16.896Z,4.15
2023-01-11T09:45:52.350Z,3.72
2023-01-11T09:48:36.625Z,4.60
2023-01-11T09:51:12.525Z,4.20
2023-01-11T09:53:50.148Z,4.13
2023-01-11T09:56:29.532Z,4.07
2023-01-11T09:59:15.025Z,3.80
2023-01-11T10:01:53.605Z,3.90
2023-01-11T10:04:59.239Z,3.05
2023-01-11T10:07:49.821Z,5.43
2023-01-11T10:18:28.985Z,3.95
2023-01-11T10:19:41.532Z,3.28
2023-01-11T10:22:22.545Z,4.97
2023-01-11T10:25:01.588Z,3.92
2023-01-11T10:27:40.399Z,5.80
2023-01-11T10:30:41.782Z,4.13
2023-01-11T10:33:30.002Z,4.63
2023-01-11T10:36:28.130Z,3.70
2023-01-11T10:39:27.142Z,5.00
2023-01-11T10:42:09.554Z,4.00
2023-01-11T10:44:48.737Z,3.78
2023-01-11T10:47:27.834Z,4.10
2023-01-11T10:50:06.395Z,5.97
2023-01-11T10:52:48.036Z,4.57
2023-01-11T10:55:28.536Z,5.03
2023-01-11T10:58:15.403Z,4.65
2023-01-11T11:00:58.638Z,4.55
2023-01-11T11:03:53.717Z,5.13
2023-01-11T11:06:39.053Z,4.05
2023-01-11T11:09:22.108Z,4.50
2023-01-11T11:14:38.787Z,3.90
2023-01-11T11:17:22.731Z,4.57
2023-01-11T11:19:55.908Z,4.75
2023-01-11T11:25:05.467Z,4.43
2023-01-11T11:27:44.292Z,5.00
2023-01-11T11:30:28.052Z,5.10
2023-01-11T11:33:03.657Z,4.45
2023-01-11T11:35:42.440Z,4.78
2023-01-11T11:38:23.508Z,4.25
2023-01-11T11:41:06.898Z,3.97
2023-01-11T11:43:42.256Z,5.05
2023-01-11T11:46:25.218Z,4.13
2023-01-11T11:49:13.059Z,4.68
2023-01-11T11:51:48.183Z,4.60
2023-01-11T11:54:25.837Z,3.88
2023-01-11T11:57:00.993Z,6.03
2023-01-11T11:59:35.335Z,4.55
2023-01-11T12:02:23.645Z,4.60
2023-01-11T12:04:58.276Z,5.13
2023-01-11T12:07:40.480Z,4.80
2023-01-11T12:10:21.777Z,4.78
2023-01-11T12:12:56.650Z,4.57
2023-01-11T12:15:31.684Z,4.97
2023-01-11T12:18:24.216Z,5.10
2023-01-11T12:20:57.282Z,4.90
2023-01-11T12:26:17.874Z,5.40
2023-01-11T12:29:32.118Z,5.22
2023-01-11T12:32:32.678Z,4.10
2023-01-11T12:35:28.604Z,4.47
2023-01-11T12:38:21.792Z,4.00
2023-01-11T12:41:19.488Z,5.10
2023-01-11T12:44:06.211Z,4.93
2023-01-11T12:46:54.475Z,3.58
2023-01-11T12:49:40.147Z,5.25
2023-01-11T12:52:29.455Z,5.38
2023-01-11T12:55:20.793Z,4.82
2023-01-11T12:58:01.939Z,4.13
2023-01-11T13:01:13.832Z,6.97
2023-01-11T13:04:14.290Z,4.78
2023-01-11T13:06:58.848Z,4.82
2023-01-11T13:09:46.709Z,5.65
2023-01-11T13:12:24.002Z,4.95
2023-01-11T13:15:10.751Z,5.68
2023-01-11T13:17:52.406Z,4.82
2023-01-11T13:20:59.245Z,4.80
2023-01-11T13:23:42.265Z,4.25
2023-01-11T13:26:21.671Z,5.15
2023-01-11T13:29:00.880Z,4.63
2023-01-11T13:31:36.183Z,4.03
2023-01-11T13:34:18.739Z,4.43
2023-01-11T13:36:56.819Z,3.53
2023-01-11T13:39:41.427Z,4.75
2023-01-11T13:42:18.381Z,4.68
2023-01-11T13:44:55.189Z,4.55
2023-01-11T13:47:36.337Z,5.53
2023-01-11T13:50:18.652Z,5.43
2023-01-11T13:53:03.349Z,4.55
2023-01-11T13:55:43.403Z,4.70
2023-01-11T13:58:23.396Z,4.95
2023-01-11T14:01:02.414Z,5.38
2023-01-11T14:03:43.801Z,5.10
2023-01-11T14:06:32.176Z,4.28
2023-01-11T14:09:20.480Z,5.65
2023-01-11T14:12:02.444Z,5.07
2023-01-11T14:15:03.180Z,5.68
2023-01-11T14:18:05.783Z,5.32
2023-01-11T14:20:45.701Z,4.40
2023-01-11T14:23:20.224Z,4.13
2023-01-11T14:26:15.727Z,5.30
2023-01-11T14:29:06.557Z,4.95
2023-01-11T14:32:00.719Z,5.45
2023-01-11T14:34:59.335Z,5.60
2023-01-11T14:37:59.712Z,5.38
2023-01-11T14:41:08.457Z,5.40
2023-01-11T14:43:58.500Z,4.72
2023-01-11T14:46:59.980Z,6.95
2023-01-11T14:49:51.606Z,5.50
2023-01-11T14:52:39.713Z,5.85
2023-01-11T14:55:19.221Z,6.78
2023-01-11T14:58:03.909Z,6.40
2023-01-11T15:01:05.181Z,6.03
2023-01-11T15:03:50.459Z,5.63
2023-01-11T15:06:23.959Z,6.80
2023-01-11T15:08:56.936Z,5.85
2023-01-11T15:14:32.608Z,6.68
2023-01-11T15:17:23.733Z,6.22
2023-01-11T15:20:07.636Z,6.88
2023-01-11T15:22:41.673Z,6.40
2023-01-11T15:25:23.843Z,5.85
2023-01-11T15:27:58.033Z,6.50
2023-01-11T15:30:39.141Z,5.72
2023-01-11T15:33:45.494Z,7.63
2023-01-11T15:36:24.402Z,4.10
2023-01-11T15:39:03.019Z,7.18
2023-01-11T15:42:05.682Z,5.38
2023-01-11T15:45:00.843Z,5.57
2023-01-11T15:47:56.424Z,6.20
2023-01-11T15:50:55.220Z,4.50
2023-01-11T15:53:49.240Z,5.05
2023-01-11T15:56:46.755Z,7.32
2023-01-11T15:59:42.144Z,6.45
2023-01-11T16:02:56.181Z,5.72
2023-01-11T16:05:32.204Z,5.30
2023-01-11T16:08:21.017Z,5.68
2023-01-11T16:11:07.301Z,5.22
2023-01-11T16:13:52.316Z,4.63
2023-01-11T16:16:29.289Z,5.53
2023-01-11T16:19:10.925Z,4.60
2023-01-11T16:21:50.149Z,5.57
2023-01-11T16:24:27.298Z,5.43
2023-01-11T16:27:04.781Z,4.57
2023-01-11T16:29:39.258Z,6.03
2023-01-11T16:32:21.398Z,5.22
2023-01-11T16:34:55.834Z,5.32
2023-01-11T16:37:32.671Z,5.57
2023-01-11T16:40:14.276Z,6.40
2023-01-11T16:42:53.237Z,5.25
2023-01-11T16:45:40.992Z,6.65
2023-01-11T16:48:16.666Z,4.57
2023-01-11T16:51:01.105Z,6.30
2023-01-11T16:53:36.251Z,8.05
2023-01-11T16:56:18.793Z,6.18
2023-01-11T16:59:08.209Z,5.50
2023-01-11T17:01:54.972Z,5.68
2023-01-11T17:04:31.090Z,5.57
2023-01-11T17:07:15.354Z,5.68
2023-01-11T17:09:50.465Z,5.90
2023-01-11T17:12:26.046Z,6.00
2023-01-11T17:20:57.803Z,7.93
2023-01-11T17:23:32.082Z,6.65
2023-01-11T17:26:09.039Z,6.80
2023-01-11T17:31:48.783Z,6.05
2023-01-11T17:34:27.203Z,7.88
2023-01-11T17:37:05.092Z,5.13
2023-01-11T17:39:40.794Z,5.72
2023-01-11T17:42:33.408Z,4.82
2023-01-11T17:45:20.807Z,5.93
2023-01-11T17:47:56.387Z,4.20
2023-01-11T17:50:31.229Z,4.45
2023-01-11T17:53:08.140Z,5.97
2023-01-11T17:55:53.690Z,4.25
2023-01-11T17:58:28.689Z,4.53
2023-01-11T18:01:21.525Z,4.60
2023-01-11T18:03:57.925Z,4.82
2023-01-11T18:06:35.325Z,6.32
2023-01-11T18:09:22.234Z,4.63
2023-01-11T18:12:05.717Z,4.97
2023-01-11T18:14:42.404Z,6.30
2023-01-11T18:17:40.431Z,5.05
2023-01-11T18:20:39.514Z,7.20
2023-01-11T18:23:22.680Z,6.65
2023-01-11T18:28:44.915Z,5.55
2023-01-11T18:31:18.097Z,6.90
2023-01-11T18:33:53.567Z,5.95
2023-01-11T18:36:34.576Z,5.78
2023-01-11T18:39:11.650Z,4.90
2023-01-11T18:42:02.362Z,4.80
2023-01-11T18:44:48.867Z,5.35
2023-01-11T18:59:56.331Z,4.60
2023-01-11T19:02:34.222Z,4.28
2023-01-11T19:05:20.862Z,5.30
2023-01-11T19:07:53.740Z,4.82
2023-01-11T19:13:01.666Z,4.65
2023-01-11T19:15:40.257Z,4.28
2023-01-11T19:18:30.989Z,3.70
2023-01-11T19:24:11.694Z,4.97
2023-01-11T19:26:45.103Z,5.15
2023-01-11T19:32:26.781Z,3.92
2023-01-11T19:38:03.347Z,3.95
2023-01-11T19:46:19.549Z,5.90
2023-01-11T19:49:02.761Z,5.30
2023-01-11T19:51:35.789Z,4.22
2023-01-11T19:56:44.848Z,5.40
2023-01-11T19:59:18.085Z,4.53
2023-01-11T20:05:15.283Z,5.03
2023-01-11T20:07:49.604Z,5.45
2023-01-11T20:10:22.995Z,4.90
2023-01-11T20:13:03.998Z,4.72
2023-01-11T20:15:38.747Z,5.05
2023-01-11T20:18:13.128Z,6.07
2023-01-11T20:20:56.397Z,4.38
2023-01-11T20:23:34.637Z,6.20
2023-01-11T20:26:14.983Z,5.97
2023-01-11T20:29:02.208Z,6.30
2023-01-11T20:31:50.826Z,5.30
2023-01-11T20:37:32.904Z,5.07
2023-01-11T20:40:07.143Z,5.60
2023-01-11T20:42:40.042Z,5.07
2023-01-11T20:47:46.195Z,5.78
2023-01-11T20:52:54.144Z,6.65
2023-01-11T20:55:27.749Z,5.47
2023-01-11T20:58:04.746Z,4.90
2023-01-11T21:00:38.104Z,5.97
2023-01-11T21:03:20.151Z,5.10
2023-01-11T21:05:58.950Z,6.03
2023-01-11T21:08:34.839Z,6.25
2023-01-11T21:11:10.903Z,5.47
2023-01-11T21:13:43.995Z,6.28
2023-01-11T21:16:17.949Z,5.03
2023-01-11T21:18:55.680Z,6.45
2023-01-11T21:21:33.200Z,4.85
2023-01-11T21:24:09.251Z,5.13
2023-01-11T21:26:46.705Z,7.25
2023-01-11T21:29:20.940Z,4.57
2023-01-11T21:31:56.223Z,5.45
2023-01-11T21:34:31.880Z,5.07
2023-01-11T21:37:08.764Z,6.15
2023-01-11T21:39:54.025Z,5.50
2023-01-11T21:42:27.017Z,6.68
2023-01-11T21:47:33.637Z,4.63
2023-01-11T21:50:08.743Z,4.45
2023-01-11T21:52:42.150Z,5.55
2023-01-11T21:55:16.980Z,4.68
2023-01-11T21:57:52.689Z,4.55
2023-01-11T22:00:31.970Z,3.70
2023-01-11T22:03:05.514Z,4.00
2023-01-11T22:05:38.936Z,4.65
2023-01-11T22:08:16.662Z,4.07
2023-01-11T22:11:04.582Z,3.58
2023-01-11T22:13:37.816Z,4.78
2023-01-11T22:16:14.399Z,4.90
2023-01-11T22:18:47.871Z,4.47
2023-01-11T22:21:24.136Z,4.10
2023-01-11T22:23:58.938Z,4.47
2023-01-11T22:26:35.864Z,4.13
2023-01-11T22:29:12.852Z,3.80
2023-01-11T22:31:51.724Z,4.47
2023-01-11T22:34:27.730Z,3.60
2023-01-11T22:37:01.810Z,4.65
2023-01-11T22:39:37.998Z,5.03
2023-01-11T22:42:12.087Z,4.47
2023-01-11T22:44:44.985Z,4.68
2023-01-11T22:49:54.167Z,4.55
2023-01-11T22:52:27.076Z,5.88
2023-01-11T22:57:36.274Z,4.28
2023-01-11T23:00:11.864Z,4.82
2023-01-11T23:02:46.894Z,4.15
2023-01-11T23:05:20.106Z,5.43
2023-01-11T23:07:52.981Z,4.35
2023-01-11T23:10:26.009Z,5.18
2023-01-11T23:13:18.096Z,3.95
2023-01-11T23:15:53.071Z,6.28
2023-01-11T23:18:26.212Z,4.60
2023-01-11T23:21:03.982Z,4.93
2023-01-11T23:23:38.218Z,5.45
2023-01-11T23:26:12.876Z,5.00
2023-01-11T23:28:49.141Z,4.95
2023-01-11T23:31:24.425Z,6.13
2023-01-11T23:33:59.422Z,4.88
2023-01-11T23:36:34.345Z,4.90
2023-01-11T23:39:09.075Z,5.75
2023-01-11T23:41:59.737Z,4.93
2023-01-11T23:44:34.468Z,5.53
2023-01-11T23:47:22.534Z,6.63
2023-01-11T23:50:00.363Z,5.78
2023-01-11T23:52:36.738Z,5.82
2023-01-11T23:55:25.649Z,6.53
2023-01-11T23:58:09.958Z,6.18
